sensor_id;sensor_type;location;lat;lon;timestamp;pressure;altitude;pressure_sealevel;temperature;humidity
64230;BME280;50547;49.498;0.092;2023-01-28T00:00:56;1024.70;;;5.15;71.91
64230;BME280;50547;49.498;0.092;2023-01-28T00:03:25;1024.72;;;5.26;71.07
64230;BME280;50547;49.498;0.092;2023-01-28T00:06:01;1024.79;;;5.39;70.54
64230;BME280;50547;49.498;0.092;2023-01-28T00:08:31;1024.83;;;5.40;70.58
64230;BME280;50547;49.498;0.092;2023-01-28T00:11:01;1024.79;;;5.52;70.26
64230;BME280;50547;49.498;0.092;2023-01-28T00:13:31;1024.79;;;5.78;69.84
64230;BME280;50547;49.498;0.092;2023-01-28T00:16:02;1024.79;;;5.92;69.65
64230;BME280;50547;49.498;0.092;2023-01-28T00:18:32;1024.83;;;5.88;69.91
64230;BME280;50547;49.498;0.092;2023-01-28T00:21:02;1024.87;;;5.84;70.25
64230;BME280;50547;49.498;0.092;2023-01-28T00:23:33;1024.87;;;5.73;70.17
64230;BME280;50547;49.498;0.092;2023-01-28T00:26:05;1024.87;;;5.71;70.23
64230;BME280;50547;49.498;0.092;2023-01-28T00:28:34;1024.85;;;5.69;69.88
64230;BME280;50547;49.498;0.092;2023-01-28T00:31:05;1024.89;;;5.75;69.75
64230;BME280;50547;49.498;0.092;2023-01-28T00:33:34;1024.95;;;5.72;70.12
64230;BME280;50547;49.498;0.092;2023-01-28T00:36:05;1024.99;;;5.60;70.94
64230;BME280;50547;49.498;0.092;2023-01-28T00:38:34;1025.01;;;5.75;70.48
64230;BME280;50547;49.498;0.092;2023-01-28T00:41:08;1024.91;;;5.90;70.07
64230;BME280;50547;49.498;0.092;2023-01-28T00:43:38;1024.91;;;5.81;70.32
64230;BME280;50547;49.498;0.092;2023-01-28T00:46:09;1024.87;;;5.81;70.46
64230;BME280;50547;49.498;0.092;2023-01-28T00:48:39;1024.77;;;5.99;70.06
64230;BME280;50547;49.498;0.092;2023-01-28T00:51:10;1024.81;;;6.18;69.41
64230;BME280;50547;49.498;0.092;2023-01-28T00:53:40;1024.79;;;6.23;69.37
64230;BME280;50547;49.498;0.092;2023-01-28T00:56:12;1024.75;;;6.00;70.14
64230;BME280;50547;49.498;0.092;2023-01-28T00:58:42;1024.74;;;5.98;70.21
64230;BME280;50547;49.498;0.092;2023-01-28T01:01:13;1024.74;;;6.09;69.86
64230;BME280;50547;49.498;0.092;2023-01-28T01:03:43;1024.75;;;6.13;69.68
64230;BME280;50547;49.498;0.092;2023-01-28T01:06:15;1024.79;;;6.07;70.03
64230;BME280;50547;49.498;0.092;2023-01-28T01:08:44;1024.81;;;5.90;70.60
64230;BME280;50547;49.498;0.092;2023-01-28T01:11:13;1024.79;;;5.93;70.52
64230;BME280;50547;49.498;0.092;2023-01-28T01:13:50;1024.79;;;5.92;70.53
64230;BME280;50547;49.498;0.092;2023-01-28T01:16:20;1024.79;;;6.02;70.08
64230;BME280;50547;49.498;0.092;2023-01-28T01:18:50;1024.87;;;5.94;70.28
64230;BME280;50547;49.498;0.092;2023-01-28T01:21:22;1024.85;;;5.94;70.09
64230;BME280;50547;49.498;0.092;2023-01-28T01:23:51;1024.89;;;5.83;70.73
64230;BME280;50547;49.498;0.092;2023-01-28T01:26:21;1024.91;;;5.85;70.62
64230;BME280;50547;49.498;0.092;2023-01-28T01:28:51;1024.95;;;5.87;70.42
64230;BME280;50547;49.498;0.092;2023-01-28T01:31:21;1025.01;;;5.85;70.33
64230;BME280;50547;49.498;0.092;2023-01-28T01:33:51;1025.07;;;5.91;69.68
64230;BME280;50547;49.498;0.092;2023-01-28T01:36:20;1025.05;;;5.83;69.88
64230;BME280;50547;49.498;0.092;2023-01-28T01:38:52;1025.05;;;5.83;70.21
64230;BME280;50547;49.498;0.092;2023-01-28T01:41:25;1025.01;;;5.74;70.73
64230;BME280;50547;49.498;0.092;2023-01-28T01:43:57;1024.91;;;5.90;70.28
64230;BME280;50547;49.498;0.092;2023-01-28T01:46:32;1024.95;;;5.89;70.20
64230;BME280;50547;49.498;0.092;2023-01-28T01:49:10;1024.95;;;5.93;70.06
64230;BME280;50547;49.498;0.092;2023-01-28T01:51:44;1024.89;;;5.85;70.26
64230;BME280;50547;49.498;0.092;2023-01-28T01:54:15;1024.85;;;5.86;70.35
64230;BME280;50547;49.498;0.092;2023-01-28T01:56:46;1024.87;;;5.89;70.24
64230;BME280;50547;49.498;0.092;2023-01-28T01:59:22;1024.91;;;5.99;70.17
64230;BME280;50547;49.498;0.092;2023-01-28T02:01:54;1024.89;;;6.32;69.11
64230;BME280;50547;49.498;0.092;2023-01-28T02:04:25;1024.89;;;6.36;69.04
64230;BME280;50547;49.498;0.092;2023-01-28T02:06:59;1024.91;;;6.30;69.39
64230;BME280;50547;49.498;0.092;2023-01-28T02:09:30;1024.97;;;6.25;69.55
64230;BME280;50547;49.498;0.092;2023-01-28T02:12:03;1024.93;;;6.36;69.47
64230;BME280;50547;49.498;0.092;2023-01-28T02:14:37;1024.95;;;6.45;68.87
64230;BME280;50547;49.498;0.092;2023-01-28T02:17:09;1024.95;;;6.53;68.48
64230;BME280;50547;49.498;0.092;2023-01-28T02:19:44;1024.95;;;6.46;69.05
64230;BME280;50547;49.498;0.092;2023-01-28T02:22:37;1024.97;;;6.75;67.82
64230;BME280;50547;49.498;0.092;2023-01-28T02:25:29;1025.03;;;6.86;67.43
64230;BME280;50547;49.498;0.092;2023-01-28T02:28:12;1024.97;;;6.87;66.92
64230;BME280;50547;49.498;0.092;2023-01-28T02:30:49;1024.93;;;6.87;67.33
64230;BME280;50547;49.498;0.092;2023-01-28T02:33:28;1024.87;;;6.47;68.72
64230;BME280;50547;49.498;0.092;2023-01-28T02:36:04;1024.87;;;6.41;69.25
64230;BME280;50547;49.498;0.092;2023-01-28T02:38:41;1024.83;;;6.29;69.74
64230;BME280;50547;49.498;0.092;2023-01-28T02:41:19;1024.79;;;6.36;69.32
64230;BME280;50547;49.498;0.092;2023-01-28T02:43:49;1024.79;;;6.36;69.23
64230;BME280;50547;49.498;0.092;2023-01-28T02:46:21;1024.83;;;6.38;68.74
64230;BME280;50547;49.498;0.092;2023-01-28T02:49:09;1024.89;;;6.41;68.83
64230;BME280;50547;49.498;0.092;2023-01-28T02:51:49;1024.89;;;6.41;69.02
64230;BME280;50547;49.498;0.092;2023-01-28T02:54:28;1024.89;;;6.43;68.99
64230;BME280;50547;49.498;0.092;2023-01-28T02:57:11;1024.91;;;6.32;69.27
64230;BME280;50547;49.498;0.092;2023-01-28T02:59:49;1024.95;;;6.19;70.07
64230;BME280;50547;49.498;0.092;2023-01-28T03:02:23;1024.99;;;6.10;70.05
64230;BME280;50547;49.498;0.092;2023-01-28T03:04:58;1025.05;;;6.08;69.98
64230;BME280;50547;49.498;0.092;2023-01-28T03:07:32;1025.03;;;6.14;69.60
64230;BME280;50547;49.498;0.092;2023-01-28T03:10:05;1025.05;;;6.03;69.99
64230;BME280;50547;49.498;0.092;2023-01-28T03:12:39;1025.03;;;6.04;69.87
64230;BME280;50547;49.498;0.092;2023-01-28T03:15:14;1025.01;;;6.09;69.80
64230;BME280;50547;49.498;0.092;2023-01-28T03:17:47;1025.01;;;6.03;70.15
64230;BME280;50547;49.498;0.092;2023-01-28T03:20:18;1025.01;;;6.11;70.02
64230;BME280;50547;49.498;0.092;2023-01-28T03:22:50;1025.07;;;6.30;69.14
64230;BME280;50547;49.498;0.092;2023-01-28T03:25:24;1025.07;;;6.29;69.32
64230;BME280;50547;49.498;0.092;2023-01-28T03:27:59;1024.99;;;6.48;68.94
64230;BME280;50547;49.498;0.092;2023-01-28T03:30:33;1025.01;;;6.58;68.70
64230;BME280;50547;49.498;0.092;2023-01-28T03:33:05;1025.05;;;6.56;68.69
64230;BME280;50547;49.498;0.092;2023-01-28T03:35:35;1025.05;;;6.63;68.53
64230;BME280;50547;49.498;0.092;2023-01-28T03:38:06;1025.03;;;6.71;68.50
64230;BME280;50547;49.498;0.092;2023-01-28T03:40:48;1025.01;;;6.67;68.77
64230;BME280;50547;49.498;0.092;2023-01-28T03:43:17;1024.99;;;6.63;68.86
64230;BME280;50547;49.498;0.092;2023-01-28T03:45:46;1025.01;;;6.91;67.78
64230;BME280;50547;49.498;0.092;2023-01-28T03:48:15;1025.05;;;6.88;67.13
64230;BME280;50547;49.498;0.092;2023-01-28T03:50:44;1025.03;;;6.88;67.28
64230;BME280;50547;49.498;0.092;2023-01-28T03:53:14;1024.97;;;6.83;67.40
64230;BME280;50547;49.498;0.092;2023-01-28T03:55:44;1024.99;;;6.85;67.14
64230;BME280;50547;49.498;0.092;2023-01-28T03:58:15;1025.01;;;6.76;67.47
64230;BME280;50547;49.498;0.092;2023-01-28T04:00:45;1024.99;;;6.76;67.72
64230;BME280;50547;49.498;0.092;2023-01-28T04:03:16;1025.05;;;6.95;67.36
64230;BME280;50547;49.498;0.092;2023-01-28T04:05:56;1025.09;;;6.98;67.20
64230;BME280;50547;49.498;0.092;2023-01-28T04:08:26;1025.09;;;7.18;67.14
64230;BME280;50547;49.498;0.092;2023-01-28T04:10:55;1025.13;;;7.42;66.83
64230;BME280;50547;49.498;0.092;2023-01-28T04:13:24;1025.15;;;7.49;66.89
64230;BME280;50547;49.498;0.092;2023-01-28T04:15:54;1025.13;;;7.58;66.69
64230;BME280;50547;49.498;0.092;2023-01-28T04:18:23;1025.19;;;7.64;66.66
64230;BME280;50547;49.498;0.092;2023-01-28T04:20:52;1025.19;;;7.71;66.55
64230;BME280;50547;49.498;0.092;2023-01-28T04:23:21;1025.19;;;7.82;66.45
64230;BME280;50547;49.498;0.092;2023-01-28T04:25:50;1025.21;;;7.81;65.67
64230;BME280;50547;49.498;0.092;2023-01-28T04:28:20;1025.21;;;7.68;66.05
64230;BME280;50547;49.498;0.092;2023-01-28T04:30:51;1025.24;;;7.69;65.12
64230;BME280;50547;49.498;0.092;2023-01-28T04:33:20;1025.26;;;7.54;65.43
64230;BME280;50547;49.498;0.092;2023-01-28T04:35:49;1025.30;;;7.47;65.92
64230;BME280;50547;49.498;0.092;2023-01-28T04:38:18;1025.28;;;7.49;65.89
64230;BME280;50547;49.498;0.092;2023-01-28T04:40:49;1025.30;;;7.43;66.18
64230;BME280;50547;49.498;0.092;2023-01-28T04:43:18;1025.28;;;7.65;65.96
64230;BME280;50547;49.498;0.092;2023-01-28T04:45:48;1025.24;;;7.79;65.82
64230;BME280;50547;49.498;0.092;2023-01-28T04:48:18;1025.30;;;7.68;66.14
64230;BME280;50547;49.498;0.092;2023-01-28T04:50:47;1025.30;;;7.56;66.45
64230;BME280;50547;49.498;0.092;2023-01-28T04:53:16;1025.30;;;7.44;66.86
64230;BME280;50547;49.498;0.092;2023-01-28T04:55:45;1025.26;;;7.40;66.96
64230;BME280;50547;49.498;0.092;2023-01-28T04:58:11;1025.24;;;7.07;68.26
64230;BME280;50547;49.498;0.092;2023-01-28T05:00:40;1025.28;;;6.97;68.33
64230;BME280;50547;49.498;0.092;2023-01-28T05:03:09;1025.19;;;6.74;68.75
64230;BME280;50547;49.498;0.092;2023-01-28T05:05:39;1025.17;;;6.61;69.00
64230;BME280;50547;49.498;0.092;2023-01-28T05:08:08;1025.17;;;6.73;68.23
64230;BME280;50547;49.498;0.092;2023-01-28T05:10:37;1025.13;;;6.85;67.78
64230;BME280;50547;49.498;0.092;2023-01-28T05:13:06;1025.17;;;7.00;67.38
64230;BME280;50547;49.498;0.092;2023-01-28T05:15:35;1025.15;;;7.16;67.03
64230;BME280;50547;49.498;0.092;2023-01-28T05:18:10;1025.11;;;7.08;67.22
64230;BME280;50547;49.498;0.092;2023-01-28T05:20:39;1025.11;;;7.11;67.39
64230;BME280;50547;49.498;0.092;2023-01-28T05:23:08;1025.15;;;6.81;68.37
64230;BME280;50547;49.498;0.092;2023-01-28T05:25:37;1025.15;;;6.85;68.26
64230;BME280;50547;49.498;0.092;2023-01-28T05:28:06;1025.21;;;6.89;68.01
64230;BME280;50547;49.498;0.092;2023-01-28T05:30:37;1025.24;;;6.86;68.02
64230;BME280;50547;49.498;0.092;2023-01-28T05:33:06;1025.24;;;6.89;68.02
64230;BME280;50547;49.498;0.092;2023-01-28T05:35:35;1025.32;;;6.88;67.97
64230;BME280;50547;49.498;0.092;2023-01-28T05:38:05;1025.36;;;6.92;67.85
64230;BME280;50547;49.498;0.092;2023-01-28T05:40:34;1025.40;;;7.13;66.22
64230;BME280;50547;49.498;0.092;2023-01-28T05:43:03;1025.44;;;7.21;65.76
64230;BME280;50547;49.498;0.092;2023-01-28T05:45:32;1025.48;;;7.35;65.90
64230;BME280;50547;49.498;0.092;2023-01-28T05:48:01;1025.52;;;7.49;65.74
64230;BME280;50547;49.498;0.092;2023-01-28T05:50:30;1025.50;;;7.37;65.87
64230;BME280;50547;49.498;0.092;2023-01-28T05:52:59;1025.52;;;7.33;66.46
64230;BME280;50547;49.498;0.092;2023-01-28T05:55:28;1025.50;;;7.42;66.42
64230;BME280;50547;49.498;0.092;2023-01-28T05:57:58;1025.46;;;7.37;66.51
64230;BME280;50547;49.498;0.092;2023-01-28T06:00:27;1025.44;;;7.34;66.67
64230;BME280;50547;49.498;0.092;2023-01-28T06:02:56;1025.44;;;7.24;66.80
64230;BME280;50547;49.498;0.092;2023-01-28T06:05:25;1025.52;;;7.14;67.30
64230;BME280;50547;49.498;0.092;2023-01-28T06:07:54;1025.50;;;7.04;67.15
64230;BME280;50547;49.498;0.092;2023-01-28T06:10:24;1025.52;;;6.89;67.80
64230;BME280;50547;49.498;0.092;2023-01-28T06:12:53;1025.54;;;6.84;68.04
64230;BME280;50547;49.498;0.092;2023-01-28T06:15:22;1025.52;;;6.83;68.08
64230;BME280;50547;49.498;0.092;2023-01-28T06:17:51;1025.50;;;6.69;68.60
64230;BME280;50547;49.498;0.092;2023-01-28T06:20:20;1025.50;;;6.55;69.00
64230;BME280;50547;49.498;0.092;2023-01-28T06:22:50;1025.52;;;6.54;68.84
64230;BME280;50547;49.498;0.092;2023-01-28T06:25:19;1025.50;;;6.56;68.49
64230;BME280;50547;49.498;0.092;2023-01-28T06:27:48;1025.60;;;6.69;67.93
64230;BME280;50547;49.498;0.092;2023-01-28T06:30:18;1025.64;;;6.73;67.64
64230;BME280;50547;49.498;0.092;2023-01-28T06:32:52;1025.64;;;6.69;67.68
64230;BME280;50547;49.498;0.092;2023-01-28T06:35:21;1025.68;;;6.56;68.42
64230;BME280;50547;49.498;0.092;2023-01-28T06:37:51;1025.66;;;6.52;68.74
64230;BME280;50547;49.498;0.092;2023-01-28T06:40:21;1025.71;;;6.40;69.31
64230;BME280;50547;49.498;0.092;2023-01-28T06:42:50;1025.69;;;6.45;69.21
64230;BME280;50547;49.498;0.092;2023-01-28T06:45:19;1025.66;;;6.53;69.12
64230;BME280;50547;49.498;0.092;2023-01-28T06:47:48;1025.69;;;6.57;68.79
64230;BME280;50547;49.498;0.092;2023-01-28T06:50:17;1025.73;;;6.46;69.07
64230;BME280;50547;49.498;0.092;2023-01-28T06:52:47;1025.75;;;6.38;69.60
64230;BME280;50547;49.498;0.092;2023-01-28T06:55:16;1025.85;;;6.36;69.90
64230;BME280;50547;49.498;0.092;2023-01-28T06:57:45;1025.83;;;6.29;70.25
64230;BME280;50547;49.498;0.092;2023-01-28T07:00:15;1025.85;;;6.27;70.42
64230;BME280;50547;49.498;0.092;2023-01-28T07:02:44;1025.81;;;6.30;70.40
64230;BME280;50547;49.498;0.092;2023-01-28T07:05:13;1025.81;;;6.30;70.56
64230;BME280;50547;49.498;0.092;2023-01-28T07:07:42;1025.81;;;6.30;70.47
64230;BME280;50547;49.498;0.092;2023-01-28T07:10:12;1025.87;;;6.47;69.79
64230;BME280;50547;49.498;0.092;2023-01-28T07:12:41;1025.81;;;6.53;69.52
64230;BME280;50547;49.498;0.092;2023-01-28T07:15:11;1025.83;;;6.51;69.59
64230;BME280;50547;49.498;0.092;2023-01-28T07:17:40;1025.79;;;6.56;69.56
64230;BME280;50547;49.498;0.092;2023-01-28T07:20:12;1025.73;;;6.61;69.37
64230;BME280;50547;49.498;0.092;2023-01-28T07:22:43;1025.73;;;6.64;69.35
64230;BME280;50547;49.498;0.092;2023-01-28T07:25:13;1025.75;;;6.85;68.61
64230;BME280;50547;49.498;0.092;2023-01-28T07:27:47;1025.75;;;6.85;68.62
64230;BME280;50547;49.498;0.092;2023-01-28T07:30:18;1025.79;;;6.69;68.98
64230;BME280;50547;49.498;0.092;2023-01-28T07:32:52;1025.85;;;6.49;69.68
64230;BME280;50547;49.498;0.092;2023-01-28T07:35:22;1025.81;;;6.33;70.29
64230;BME280;50547;49.498;0.092;2023-01-28T07:37:52;1025.83;;;6.15;70.96
64230;BME280;50547;49.498;0.092;2023-01-28T07:40:23;1025.83;;;6.31;70.17
64230;BME280;50547;49.498;0.092;2023-01-28T07:42:53;1025.83;;;6.35;69.93
64230;BME280;50547;49.498;0.092;2023-01-28T07:45:23;1025.83;;;6.38;69.59
64230;BME280;50547;49.498;0.092;2023-01-28T07:47:54;1025.89;;;6.47;69.36
64230;BME280;50547;49.498;0.092;2023-01-28T11:07:31;1027.15;;;7.02;71.65
64230;BME280;50547;49.498;0.092;2023-01-28T11:10:00;1027.15;;;6.76;72.08
64230;BME280;50547;49.498;0.092;2023-01-28T11:12:30;1027.11;;;6.76;72.55
64230;BME280;50547;49.498;0.092;2023-01-28T11:15:00;1027.09;;;6.67;72.49
64230;BME280;50547;49.498;0.092;2023-01-28T11:17:32;1027.05;;;6.61;72.53
64230;BME280;50547;49.498;0.092;2023-01-28T11:20:10;1027.05;;;6.70;72.34
64230;BME280;50547;49.498;0.092;2023-01-28T11:22:41;1027.03;;;6.77;72.32
64230;BME280;50547;49.498;0.092;2023-01-28T11:25:16;1026.94;;;6.73;72.57
64230;BME280;50547;49.498;0.092;2023-01-28T11:27:48;1026.98;;;7.02;72.16
64230;BME280;50547;49.498;0.092;2023-01-28T11:30:22;1026.98;;;7.01;72.03
64230;BME280;50547;49.498;0.092;2023-01-28T11:32:57;1026.92;;;6.94;71.85
64230;BME280;50547;49.498;0.092;2023-01-28T11:35:33;1026.94;;;7.18;71.12
64230;BME280;50547;49.498;0.092;2023-01-28T11:38:02;1026.92;;;7.21;71.35
64230;BME280;50547;49.498;0.092;2023-01-28T11:40:36;1026.88;;;7.19;71.93
64230;BME280;50547;49.498;0.092;2023-01-28T11:43:07;1026.88;;;7.29;71.94
64230;BME280;50547;49.498;0.092;2023-01-28T11:45:41;1026.86;;;6.67;73.66
64230;BME280;50547;49.498;0.092;2023-01-28T11:48:20;1026.82;;;6.68;74.13
64230;BME280;50547;49.498;0.092;2023-01-28T11:50:56;1026.82;;;6.87;73.58
64230;BME280;50547;49.498;0.092;2023-01-28T11:53:39;1026.86;;;7.33;72.56
64230;BME280;50547;49.498;0.092;2023-01-28T11:56:26;1026.82;;;7.57;72.34
64230;BME280;50547;49.498;0.092;2023-01-28T11:59:13;1026.78;;;7.28;73.06
64230;BME280;50547;49.498;0.092;2023-01-28T12:01:52;1026.88;;;7.01;74.45
64230;BME280;50547;49.498;0.092;2023-01-28T12:04:40;1026.82;;;7.17;74.25
64230;BME280;50547;49.498;0.092;2023-01-28T12:07:26;1026.84;;;7.14;73.29
64230;BME280;50547;49.498;0.092;2023-01-28T12:10:04;1026.80;;;7.14;73.94
64230;BME280;50547;49.498;0.092;2023-01-28T12:12:49;1026.82;;;7.30;73.84
64230;BME280;50547;49.498;0.092;2023-01-28T12:15:42;1026.68;;;7.16;74.44
64230;BME280;50547;49.498;0.092;2023-01-28T12:18:33;1026.68;;;7.43;73.08
64230;BME280;50547;49.498;0.092;2023-01-28T12:21:10;1026.70;;;7.46;73.10
64230;BME280;50547;49.498;0.092;2023-01-28T12:23:55;1026.58;;;7.43;73.69
64230;BME280;50547;49.498;0.092;2023-01-28T12:26:32;1026.51;;;7.54;73.47
64230;BME280;50547;49.498;0.092;2023-01-28T12:29:17;1026.45;;;7.60;72.95
64230;BME280;50547;49.498;0.092;2023-01-28T12:32:04;1026.43;;;8.10;70.88
64230;BME280;50547;49.498;0.092;2023-01-28T12:34:49;1026.45;;;8.39;70.08
64230;BME280;50547;49.498;0.092;2023-01-28T12:37:29;1026.35;;;8.87;69.87
64230;BME280;50547;49.498;0.092;2023-01-28T12:40:12;1026.33;;;8.93;68.53
64230;BME280;50547;49.498;0.092;2023-01-28T12:42:49;1026.29;;;8.83;70.14
64230;BME280;50547;49.498;0.092;2023-01-28T12:45:23;1026.25;;;8.60;71.28
64230;BME280;50547;49.498;0.092;2023-01-28T12:48:02;1026.25;;;8.44;71.73
64230;BME280;50547;49.498;0.092;2023-01-28T12:50:35;1026.21;;;8.18;72.62
64230;BME280;50547;49.498;0.092;2023-01-28T12:53:18;1026.15;;;7.91;73.85
64230;BME280;50547;49.498;0.092;2023-01-28T12:56:11;1026.14;;;7.89;73.18
64230;BME280;50547;49.498;0.092;2023-01-28T12:58:48;1025.91;;;8.36;71.50
64230;BME280;50547;49.498;0.092;2023-01-28T13:01:22;1025.81;;;8.53;69.66
64230;BME280;50547;49.498;0.092;2023-01-28T13:03:56;1025.81;;;8.67;70.27
64230;BME280;50547;49.498;0.092;2023-01-28T13:06:33;1025.69;;;8.41;70.64
64230;BME280;50547;49.498;0.092;2023-01-28T13:09:14;1025.60;;;8.25;71.57
64230;BME280;50547;49.498;0.092;2023-01-28T13:11:46;1025.54;;;8.55;71.29
64230;BME280;50547;49.498;0.092;2023-01-28T13:14:17;1025.46;;;8.51;71.00
64230;BME280;50547;49.498;0.092;2023-01-28T13:16:48;1025.50;;;8.84;69.87
64230;BME280;50547;49.498;0.092;2023-01-28T13:19:23;1025.52;;;8.13;71.43
64230;BME280;50547;49.498;0.092;2023-01-28T13:21:52;1025.46;;;7.87;72.67
64230;BME280;50547;49.498;0.092;2023-01-28T13:24:30;1025.44;;;7.86;73.18
64230;BME280;50547;49.498;0.092;2023-01-28T13:27:10;1025.44;;;7.81;73.50
64230;BME280;50547;49.498;0.092;2023-01-28T13:29:39;1025.60;;;7.66;74.26
64230;BME280;50547;49.498;0.092;2023-01-28T13:32:28;1025.68;;;7.50;74.87
64230;BME280;50547;49.498;0.092;2023-01-28T13:35:00;1025.60;;;7.12;75.80
64230;BME280;50547;49.498;0.092;2023-01-28T13:37:33;1025.68;;;7.29;75.29
64230;BME280;50547;49.498;0.092;2023-01-28T13:40:15;1025.71;;;7.25;75.41
64230;BME280;50547;49.498;0.092;2023-01-28T13:42:58;1025.81;;;7.40;74.67
64230;BME280;50547;49.498;0.092;2023-01-28T13:45:28;1025.91;;;7.67;74.39
64230;BME280;50547;49.498;0.092;2023-01-28T13:48:04;1025.91;;;7.90;73.08
64230;BME280;50547;49.498;0.092;2023-01-28T13:50:42;1025.85;;;8.30;72.53
64230;BME280;50547;49.498;0.092;2023-01-28T13:53:24;1025.97;;;8.50;72.02
64230;BME280;50547;49.498;0.092;2023-01-28T13:55:57;1025.95;;;8.40;71.73
64230;BME280;50547;49.498;0.092;2023-01-28T13:58:40;1025.99;;;8.26;72.55
64230;BME280;50547;49.498;0.092;2023-01-28T14:01:29;1026.14;;;8.12;72.44
64230;BME280;50547;49.498;0.092;2023-01-28T14:04:28;1026.08;;;7.91;73.08
64230;BME280;50547;49.498;0.092;2023-01-28T14:09:26;1026.10;;;7.84;74.18
64230;BME280;50547;49.498;0.092;2023-01-28T14:12:13;1025.97;;;7.48;75.67
64230;BME280;50547;49.498;0.092;2023-01-28T14:15:06;1026.08;;;7.33;76.20
64230;BME280;50547;49.498;0.092;2023-01-28T14:17:41;1026.14;;;7.31;75.88
64230;BME280;50547;49.498;0.092;2023-01-28T14:20:17;1026.17;;;7.36;75.40
64230;BME280;50547;49.498;0.092;2023-01-28T14:22:49;1026.17;;;7.31;75.06
64230;BME280;50547;49.498;0.092;2023-01-28T14:25:23;1026.19;;;7.48;74.28
64230;BME280;50547;49.498;0.092;2023-01-28T14:27:55;1026.17;;;7.52;73.96
64230;BME280;50547;49.498;0.092;2023-01-28T14:30:33;1026.19;;;7.68;73.53
64230;BME280;50547;49.498;0.092;2023-01-28T14:33:09;1026.19;;;7.73;73.48
64230;BME280;50547;49.498;0.092;2023-01-28T14:35:44;1026.19;;;7.66;73.63
64230;BME280;50547;49.498;0.092;2023-01-28T14:38:17;1026.17;;;7.77;73.38
64230;BME280;50547;49.498;0.092;2023-01-28T14:40:49;1026.19;;;7.71;73.09
64230;BME280;50547;49.498;0.092;2023-01-28T14:43:22;1026.27;;;7.52;73.83
64230;BME280;50547;49.498;0.092;2023-01-28T14:46:04;1026.17;;;7.36;74.49
64230;BME280;50547;49.498;0.092;2023-01-28T14:48:41;1026.19;;;7.46;74.33
64230;BME280;50547;49.498;0.092;2023-01-28T14:51:26;1026.19;;;7.48;73.92
64230;BME280;50547;49.498;0.092;2023-01-28T14:54:09;1026.19;;;7.39;74.22
64230;BME280;50547;49.498;0.092;2023-01-28T14:56:52;1026.23;;;7.48;74.14
64230;BME280;50547;49.498;0.092;2023-01-28T14:59:32;1026.27;;;7.69;73.68
64230;BME280;50547;49.498;0.092;2023-01-28T15:02:17;1026.31;;;7.63;73.16
64230;BME280;50547;49.498;0.092;2023-01-28T15:04:47;1026.23;;;7.69;73.30
64230;BME280;50547;49.498;0.092;2023-01-28T15:07:19;1026.27;;;7.73;72.94
64230;BME280;50547;49.498;0.092;2023-01-28T15:09:58;1026.31;;;7.51;73.90
64230;BME280;50547;49.498;0.092;2023-01-28T15:12:31;1026.31;;;7.49;74.19
64230;BME280;50547;49.498;0.092;2023-01-28T15:15:08;1026.33;;;7.50;73.98
64230;BME280;50547;49.498;0.092;2023-01-28T15:17:38;1026.31;;;7.75;73.29
64230;BME280;50547;49.498;0.092;2023-01-28T15:20:18;1026.29;;;7.86;73.14
64230;BME280;50547;49.498;0.092;2023-01-28T15:25:47;1026.25;;;7.83;72.49
64230;BME280;50547;49.498;0.092;2023-01-28T15:37:39;1026.33;;;8.11;72.16
64230;BME280;50547;49.498;0.092;2023-01-28T15:40:17;1026.29;;;8.21;71.61
64230;BME280;50547;49.498;0.092;2023-01-28T15:42:47;1026.35;;;8.29;71.42
64230;BME280;50547;49.498;0.092;2023-01-28T15:45:19;1026.41;;;8.12;70.89
64230;BME280;50547;49.498;0.092;2023-01-28T15:47:49;1026.37;;;8.05;71.43
64230;BME280;50547;49.498;0.092;2023-01-28T15:50:21;1026.35;;;7.86;71.53
64230;BME280;50547;49.498;0.092;2023-01-28T15:52:52;1026.35;;;7.71;72.34
64230;BME280;50547;49.498;0.092;2023-01-28T15:55:34;1026.31;;;7.88;71.61
64230;BME280;50547;49.498;0.092;2023-01-28T15:58:16;1026.33;;;7.91;70.64
64230;BME280;50547;49.498;0.092;2023-01-28T16:00:46;1026.31;;;7.71;71.39
64230;BME280;50547;49.498;0.092;2023-01-28T16:03:19;1026.27;;;7.58;71.64
64230;BME280;50547;49.498;0.092;2023-01-28T16:05:56;1026.29;;;7.53;72.01
64230;BME280;50547;49.498;0.092;2023-01-28T16:08:28;1026.29;;;7.38;71.98
64230;BME280;50547;49.498;0.092;2023-01-28T16:11:00;1026.33;;;7.41;71.68
64230;BME280;50547;49.498;0.092;2023-01-28T16:13:31;1026.39;;;7.46;71.44
64230;BME280;50547;49.498;0.092;2023-01-28T16:16:02;1026.41;;;7.35;71.73
64230;BME280;50547;49.498;0.092;2023-01-28T16:18:38;1026.51;;;7.31;71.89
64230;BME280;50547;49.498;0.092;2023-01-28T16:21:10;1026.55;;;7.35;71.99
64230;BME280;50547;49.498;0.092;2023-01-28T16:23:50;1026.55;;;7.38;71.92
64230;BME280;50547;49.498;0.092;2023-01-28T16:26:21;1026.64;;;7.31;72.31
64230;BME280;50547;49.498;0.092;2023-01-28T16:28:51;1026.68;;;7.52;71.87
64230;BME280;50547;49.498;0.092;2023-01-28T16:31:20;1026.70;;;7.69;71.54
64230;BME280;50547;49.498;0.092;2023-01-28T16:33:49;1026.60;;;7.83;71.26
64230;BME280;50547;49.498;0.092;2023-01-28T16:36:18;1026.58;;;7.92;70.82
64230;BME280;50547;49.498;0.092;2023-01-28T16:38:49;1026.68;;;7.65;71.34
64230;BME280;50547;49.498;0.092;2023-01-28T16:41:23;1026.70;;;7.39;72.38
64230;BME280;50547;49.498;0.092;2023-01-28T17:14:10;1026.78;;;7.62;72.89
64230;BME280;50547;49.498;0.092;2023-01-28T17:16:39;1026.82;;;7.65;72.96
64230;BME280;50547;49.498;0.092;2023-01-28T17:19:08;1026.86;;;7.65;72.36
64230;BME280;50547;49.498;0.092;2023-01-28T17:21:37;1026.98;;;7.63;72.74
64230;BME280;50547;49.498;0.092;2023-01-28T17:24:07;1027.05;;;7.67;72.40
64230;BME280;50547;49.498;0.092;2023-01-28T17:26:36;1027.05;;;7.54;73.06
64230;BME280;50547;49.498;0.092;2023-01-28T17:29:06;1027.09;;;7.52;73.42
64230;BME280;50547;49.498;0.092;2023-01-28T17:31:36;1027.11;;;7.55;73.34
64230;BME280;50547;49.498;0.092;2023-01-28T17:34:05;1027.09;;;7.46;73.53
64230;BME280;50547;49.498;0.092;2023-01-28T17:36:34;1027.11;;;7.43;73.72
64230;BME280;50547;49.498;0.092;2023-01-28T17:39:04;1027.09;;;7.48;73.59
64230;BME280;50547;49.498;0.092;2023-01-28T17:41:33;1027.11;;;7.61;73.29
64230;BME280;50547;49.498;0.092;2023-01-28T17:44:03;1027.09;;;7.75;73.12
64230;BME280;50547;49.498;0.092;2023-01-28T17:46:32;1027.05;;;7.84;72.97
64230;BME280;50547;49.498;0.092;2023-01-28T17:49:01;1027.11;;;7.82;73.24
64230;BME280;50547;49.498;0.092;2023-01-28T17:51:30;1027.11;;;7.75;73.53
64230;BME280;50547;49.498;0.092;2023-01-28T17:53:59;1027.09;;;7.72;73.74
64230;BME280;50547;49.498;0.092;2023-01-28T17:56:29;1027.07;;;7.66;73.95